createdAt,value
2018-06-24T00:04:53.264Z,15.07
2018-06-24T00:09:47.784Z,15.10
2018-06-24T00:14:42.341Z,14.99
2018-06-24T00:19:36.827Z,14.97
2018-06-24T00:24:31.353Z,14.90
2018-06-24T00:29:25.823Z,14.98
2018-06-24T00:34:20.388Z,14.94
2018-06-24T00:39:14.584Z,14.81
2018-06-24T00:44:09.186Z,14.76
2018-06-24T00:49:03.773Z,14.83
2018-06-24T00:53:58.295Z,14.77
2018-06-24T00:58:52.833Z,14.64
2018-06-24T01:03:47.377Z,14.51
2018-06-24T01:08:41.858Z,14.58
2018-06-24T01:13:36.392Z,14.50
2018-06-24T01:18:30.933Z,14.53
2018-06-24T01:23:25.541Z,14.58
2018-06-24T01:28:20.053Z,14.25
2018-06-24T01:33:14.657Z,14.29
2018-06-24T01:38:09.206Z,14.24
2018-06-24T01:43:03.736Z,14.19
2018-06-24T01:47:58.202Z,14.09
2018-06-24T01:52:52.708Z,14.10
2018-06-24T01:57:47.209Z,14.07
2018-06-24T02:02:41.717Z,13.99
2018-06-24T02:07:36.267Z,13.96
2018-06-24T02:12:30.783Z,13.90
2018-06-24T02:17:25.271Z,13.85
2018-06-24T02:22:19.804Z,13.83
2018-06-24T02:27:14.323Z,13.71
2018-06-24T02:32:08.885Z,13.67
2018-06-24T02:37:03.365Z,13.55
2018-06-24T02:41:57.863Z,13.47
2018-06-24T02:46:52.396Z,13.42
2018-06-24T02:51:46.887Z,13.37
2018-06-24T02:56:41.484Z,13.33
2018-06-24T03:01:36.288Z,13.30
2018-06-24T03:06:30.757Z,13.30
2018-06-24T03:11:25.289Z,13.24
2018-06-24T03:16:19.802Z,13.18
2018-06-24T03:21:14.312Z,13.17
2018-06-24T03:26:08.547Z,13.19
2018-06-24T03:31:03.025Z,13.16
2018-06-24T03:35:57.633Z,13.23
2018-06-24T03:40:52.132Z,13.25
2018-06-24T03:45:46.628Z,13.27
2018-06-24T03:50:41.158Z,13.41
2018-06-24T03:55:35.759Z,13.60
2018-06-24T04:00:30.325Z,13.78
2018-06-24T04:05:24.880Z,13.95
2018-06-24T04:10:19.568Z,14.17
2018-06-24T04:15:14.258Z,14.29
2018-06-24T04:20:08.881Z,14.53
2018-06-24T04:25:03.415Z,14.67
2018-06-24T04:29:57.961Z,14.97
2018-06-24T04:34:52.488Z,15.46
2018-06-24T04:39:46.975Z,15.74
2018-06-24T04:44:41.615Z,16.04
2018-06-24T04:49:36.208Z,17.11
2018-06-24T04:54:30.677Z,17.75
2018-06-24T04:59:25.164Z,18.14
2018-06-24T05:04:19.652Z,18.26
2018-06-24T05:10:44.042Z,18.09
2018-06-24T05:15:38.729Z,17.78
2018-06-24T05:20:33.236Z,17.94
2018-06-24T05:25:27.746Z,18.09
2018-06-24T05:30:22.258Z,18.13
2018-06-24T05:35:16.735Z,18.67
2018-06-24T05:40:11.301Z,19.86
2018-06-24T05:45:05.944Z,20.40
2018-06-24T05:50:00.524Z,20.18
2018-06-24T05:54:55.073Z,20.17
2018-06-24T05:59:49.696Z,19.83
2018-06-24T06:04:49.728Z,19.83
2018-06-24T06:09:44.297Z,19.44
2018-06-24T06:14:38.864Z,19.24
2018-06-24T06:19:33.721Z,19.12
2018-06-24T06:24:28.547Z,19.31
2018-06-24T06:29:23.061Z,19.17
2018-06-24T06:34:17.497Z,19.16
2018-06-24T06:39:12.018Z,18.94
2018-06-24T06:44:06.467Z,19.08
2018-06-24T06:49:00.993Z,19.36
2018-06-24T06:53:55.597Z,19.51
2018-06-24T06:58:50.176Z,19.60
2018-06-24T07:03:45.201Z,20.49
2018-06-24T07:08:39.745Z,20.68
2018-06-24T07:13:34.211Z,21.32
2018-06-24T07:18:28.798Z,21.25
2018-06-24T07:23:23.417Z,21.57
2018-06-24T07:28:18.056Z,20.79
2018-06-24T07:33:12.571Z,20.18
2018-06-24T07:38:07.271Z,19.90
2018-06-24T07:43:01.891Z,19.45
2018-06-24T07:47:56.554Z,19.72
2018-06-24T07:52:51.126Z,20.29
2018-06-24T07:57:45.851Z,20.23
2018-06-24T08:02:40.476Z,20.80
2018-06-24T08:07:36.634Z,21.19
2018-06-24T08:12:31.184Z,21.00
2018-06-24T08:17:25.714Z,21.64
2018-06-24T08:22:19.983Z,21.60
2018-06-24T08:27:14.465Z,20.62
2018-06-24T08:32:09.073Z,20.92
2018-06-24T08:37:03.893Z,21.41
2018-06-24T08:41:58.424Z,21.91
2018-06-24T08:46:53.010Z,22.14
2018-06-24T08:51:47.578Z,21.94
2018-06-24T08:56:42.409Z,21.71
2018-06-24T09:01:37.022Z,21.28
2018-06-24T09:06:31.539Z,21.95
2018-06-24T09:11:26.274Z,22.03
2018-06-24T09:16:20.973Z,22.27
2018-06-24T09:21:16.214Z,21.96
2018-06-24T09:26:10.900Z,21.33
2018-06-24T09:31:05.610Z,21.30
2018-06-24T09:36:00.203Z,21.37
2018-06-24T09:40:55.179Z,21.79
2018-06-24T09:45:49.821Z,22.12
2018-06-24T09:50:44.341Z,21.16
2018-06-24T09:55:39.162Z,21.48
2018-06-24T10:00:33.701Z,22.63
2018-06-24T10:05:28.180Z,22.32
2018-06-24T10:10:22.763Z,22.86
2018-06-24T10:15:17.328Z,23.02
2018-06-24T10:20:12.669Z,22.98
2018-06-24T10:25:07.254Z,22.50
2018-06-24T10:30:01.930Z,22.22
2018-06-24T10:34:56.504Z,22.60
2018-06-24T10:39:51.025Z,22.35
2018-06-24T10:44:45.524Z,22.70
2018-06-24T10:49:40.253Z,23.69
2018-06-24T10:54:34.975Z,23.26
2018-06-24T10:59:29.550Z,23.66
2018-06-24T11:04:24.083Z,23.26
2018-06-24T11:09:18.636Z,22.33
2018-06-24T11:14:13.223Z,22.37
2018-06-24T11:19:07.920Z,21.78
2018-06-24T11:24:02.429Z,21.92
2018-06-24T11:28:56.986Z,21.83
2018-06-24T11:33:51.527Z,22.63
2018-06-24T11:38:45.995Z,23.16
2018-06-24T11:43:40.238Z,23.86
2018-06-24T11:48:34.830Z,22.93
2018-06-24T11:53:29.359Z,22.70
2018-06-24T11:58:23.877Z,22.65
2018-06-24T12:03:18.383Z,22.49
2018-06-24T12:08:12.927Z,22.46
2018-06-24T12:13:07.468Z,22.75
2018-06-24T12:18:02.081Z,22.42
2018-06-24T12:22:56.672Z,23.20
2018-06-24T12:27:51.181Z,23.42
2018-06-24T12:32:45.689Z,23.03
2018-06-24T12:37:40.190Z,23.21
2018-06-24T12:42:34.809Z,23.00
2018-06-24T12:47:29.421Z,22.83
2018-06-24T12:52:24.049Z,23.03
2018-06-24T12:57:18.997Z,22.98
2018-06-24T13:02:13.535Z,23.57
2018-06-24T13:07:08.171Z,23.46
2018-06-24T13:12:02.707Z,22.85
2018-06-24T13:16:57.258Z,23.41
2018-06-24T13:21:51.920Z,23.63
2018-06-24T13:26:46.552Z,24.02
2018-06-24T13:31:41.208Z,24.32
2018-06-24T13:36:35.802Z,24.57
2018-06-24T13:41:30.356Z,24.06
2018-06-24T13:46:25.757Z,24.02
2018-06-24T13:51:20.455Z,24.21
2018-06-24T13:56:15.081Z,24.56
2018-06-24T14:01:09.605Z,25.57
2018-06-24T14:06:04.642Z,26.09
2018-06-24T14:10:59.176Z,24.99
2018-06-24T14:15:53.832Z,24.65
2018-06-24T14:20:48.413Z,24.19
2018-06-24T14:25:43.048Z,23.99
2018-06-24T14:30:37.624Z,24.07
2018-06-24T14:35:32.320Z,24.37
2018-06-24T14:40:26.964Z,24.12
2018-06-24T14:45:21.556Z,23.94
2018-06-24T14:50:16.121Z,23.61
2018-06-24T14:55:10.650Z,23.72
2018-06-24T15:00:05.984Z,23.89
2018-06-24T15:05:00.551Z,23.67
2018-06-24T15:09:55.104Z,23.39
2018-06-24T15:14:49.714Z,23.48
2018-06-24T15:19:44.212Z,23.30
2018-06-24T15:24:40.165Z,23.03
2018-06-24T15:29:34.697Z,23.32
2018-06-24T15:34:29.551Z,23.26
2018-06-24T15:39:23.986Z,23.14
2018-06-24T15:44:18.504Z,22.92
2018-06-24T15:49:13.289Z,22.78
2018-06-24T15:54:07.858Z,22.93
2018-06-24T15:59:02.445Z,22.63
2018-06-24T16:03:57.121Z,22.58
2018-06-24T16:08:51.672Z,22.73
2018-06-24T16:13:46.266Z,22.64
2018-06-24T16:18:41.384Z,22.95
2018-06-24T16:23:36.272Z,22.78
2018-06-24T16:28:31.918Z,22.79
2018-06-24T16:33:26.466Z,22.35
2018-06-24T16:38:21.147Z,21.74
2018-06-24T16:43:15.790Z,21.96
2018-06-24T16:48:10.318Z,21.57
2018-06-24T16:53:05.053Z,21.52
2018-06-24T16:57:59.651Z,21.34
2018-06-24T17:02:54.140Z,21.26
2018-06-24T17:07:48.784Z,21.18
2018-06-24T17:12:43.409Z,21.15
2018-06-24T17:17:37.951Z,21.09
2018-06-24T17:22:32.482Z,20.82
2018-06-24T17:27:28.555Z,20.93
2018-06-24T17:32:23.131Z,20.79
2018-06-24T17:37:17.954Z,20.59
2018-06-24T17:42:12.565Z,20.74
2018-06-24T17:47:07.285Z,20.83
2018-06-24T17:52:02.533Z,20.56
2018-06-24T17:56:57.273Z,20.61
2018-06-24T18:01:51.648Z,20.92
2018-06-24T18:06:46.613Z,20.95
2018-06-24T18:11:41.727Z,20.55
2018-06-24T18:16:36.667Z,20.40
2018-06-24T18:21:31.321Z,20.16
2018-06-24T18:26:26.436Z,20.24
2018-06-24T18:31:21.037Z,20.19
2018-06-24T18:36:15.668Z,19.86
2018-06-24T18:41:09.911Z,20.04
2018-06-24T18:46:04.597Z,19.83
2018-06-24T18:50:59.206Z,19.74
2018-06-24T18:55:53.724Z,19.65
2018-06-24T19:00:48.359Z,19.41
2018-06-24T19:05:42.904Z,19.39
2018-06-24T19:10:37.133Z,19.28
2018-06-24T19:15:31.711Z,19.16
2018-06-24T19:20:27.135Z,19.03
2018-06-24T19:25:21.749Z,19.01
2018-06-24T19:30:16.185Z,18.85
2018-06-24T19:35:10.773Z,18.70
2018-06-24T19:40:06.855Z,18.65
2018-06-24T19:45:01.336Z,18.64
2018-06-24T19:49:55.918Z,18.55
2018-06-24T19:54:50.493Z,18.52
2018-06-24T19:59:45.475Z,18.54
2018-06-24T20:04:40.074Z,18.52
2018-06-24T20:09:34.516Z,18.35
2018-06-24T20:14:29.080Z,18.34
2018-06-24T20:19:23.593Z,18.26
2018-06-24T20:24:18.348Z,18.26
2018-06-24T20:29:12.993Z,18.33
2018-06-24T20:34:07.521Z,18.47
2018-06-24T20:39:02.036Z,18.42
2018-06-24T20:43:56.589Z,18.41
2018-06-24T20:48:51.076Z,18.46
2018-06-24T20:53:45.582Z,18.49
2018-06-24T20:58:40.128Z,18.41
2018-06-24T21:03:34.678Z,18.52
2018-06-24T21:08:29.300Z,18.50
2018-06-24T21:13:23.803Z,18.44
2018-06-24T21:18:18.320Z,18.36
2018-06-24T21:23:12.826Z,18.47
2018-06-24T21:28:07.329Z,18.48
2018-06-24T21:33:01.781Z,18.43
2018-06-24T21:37:56.328Z,18.29
2018-06-24T21:42:50.851Z,18.23
2018-06-24T21:47:45.347Z,18.23
2018-06-24T21:52:39.867Z,18.22
2018-06-24T21:57:34.425Z,18.27
2018-06-24T22:02:28.936Z,18.26
2018-06-24T22:07:24.418Z,18.39
2018-06-24T22:12:18.981Z,18.23
2018-06-24T22:17:13.596Z,18.21
2018-06-24T22:22:08.114Z,18.16
2018-06-24T22:27:02.688Z,18.18
2018-06-24T22:31:57.183Z,18.11
2018-06-24T22:36:51.740Z,18.22
2018-06-24T22:41:46.221Z,18.05
2018-06-24T22:46:40.869Z,17.97
2018-06-24T22:51:35.420Z,18.02
2018-06-24T22:56:29.877Z,17.92
2018-06-24T23:01:24.368Z,17.81
2018-06-24T23:06:18.792Z,17.86
2018-06-24T23:11:13.344Z,17.65
2018-06-24T23:16:08.020Z,17.69
2018-06-24T23:21:02.474Z,17.66
2018-06-24T23:25:56.961Z,17.59
2018-06-24T23:30:51.432Z,17.55
2018-06-24T23:35:45.902Z,17.50
2018-06-24T23:40:40.345Z,17.31
2018-06-24T23:45:34.811Z,17.35
2018-06-24T23:50:29.287Z,17.35
2018-06-24T23:55:23.741Z,17.30
